sensor_id;sensor_type;location;lat;lon;timestamp;pressure;altitude;pressure_sealevel;temperature;humidity
46690;BME280;32423;45.398;10.874;2023-06-19T00:01:22;100717.97;;;24.64;51.88
46690;BME280;32423;45.398;10.874;2023-06-19T00:04:15;100713.97;;;24.68;51.65
46690;BME280;32423;45.398;10.874;2023-06-19T00:07:09;100711.22;;;24.65;52.26
46690;BME280;32423;45.398;10.874;2023-06-19T00:10:01;100709.00;;;24.46;53.01
46690;BME280;32423;45.398;10.874;2023-06-19T00:12:56;100712.13;;;24.51;52.85
46690;BME280;32423;45.398;10.874;2023-06-19T00:15:50;100709.91;;;24.32;53.34
46690;BME280;32423;45.398;10.874;2023-06-19T00:18:45;100707.50;;;24.34;53.12
46690;BME280;32423;45.398;10.874;2023-06-19T00:21:40;100711.47;;;24.33;53.40
46690;BME280;32423;45.398;10.874;2023-06-19T00:24:34;100718.28;;;24.25;53.38
46690;BME280;32423;45.398;10.874;2023-06-19T00:27:29;100714.00;;;24.10;53.87
46690;BME280;32423;45.398;10.874;2023-06-19T00:30:24;100712.00;;;24.17;53.74
46690;BME280;32423;45.398;10.874;2023-06-19T00:33:18;100717.09;;;24.26;53.16
46690;BME280;32423;45.398;10.874;2023-06-19T00:36:16;100722.69;;;24.15;53.98
46690;BME280;32423;45.398;10.874;2023-06-19T00:39:12;100726.13;;;24.41;53.25
46690;BME280;32423;45.398;10.874;2023-06-19T00:42:07;100719.00;;;24.36;52.59
46690;BME280;32423;45.398;10.874;2023-06-19T00:45:01;100727.81;;;24.24;52.71
46690;BME280;32423;45.398;10.874;2023-06-19T00:47:59;100725.97;;;24.00;53.36
46690;BME280;32423;45.398;10.874;2023-06-19T00:50:55;100735.53;;;23.95;54.08
46690;BME280;32423;45.398;10.874;2023-06-19T00:53:49;100734.28;;;24.07;53.92
46690;BME280;32423;45.398;10.874;2023-06-19T00:56:44;100734.66;;;24.12;53.88
46690;BME280;32423;45.398;10.874;2023-06-19T00:59:40;100735.47;;;24.06;53.54
46690;BME280;32423;45.398;10.874;2023-06-19T01:02:35;100738.31;;;23.95;53.68
46690;BME280;32423;45.398;10.874;2023-06-19T01:05:29;100744.13;;;24.15;53.46
46690;BME280;32423;45.398;10.874;2023-06-19T01:11:40;100746.69;;;23.84;54.27
46690;BME280;32423;45.398;10.874;2023-06-19T01:14:53;100752.25;;;23.84;54.62
46690;BME280;32423;45.398;10.874;2023-06-19T01:17:50;100746.97;;;24.04;53.57
46690;BME280;32423;45.398;10.874;2023-06-19T01:20:45;100754.47;;;24.21;52.55
46690;BME280;32423;45.398;10.874;2023-06-19T01:23:40;100755.19;;;24.33;52.44
46690;BME280;32423;45.398;10.874;2023-06-19T01:26:34;100755.88;;;24.44;52.40
46690;BME280;32423;45.398;10.874;2023-06-19T01:29:29;100768.53;;;24.52;51.94
46690;BME280;32423;45.398;10.874;2023-06-19T01:32:25;100761.13;;;24.31;52.28
46690;BME280;32423;45.398;10.874;2023-06-19T01:35:26;100760.81;;;24.18;53.84
46690;BME280;32423;45.398;10.874;2023-06-19T01:38:23;100761.31;;;23.99;54.45
46690;BME280;32423;45.398;10.874;2023-06-19T01:41:18;100759.41;;;23.85;54.72
46690;BME280;32423;45.398;10.874;2023-06-19T01:44:13;100760.59;;;23.81;54.94
46690;BME280;32423;45.398;10.874;2023-06-19T01:47:13;100762.66;;;23.66;54.67
46690;BME280;32423;45.398;10.874;2023-06-19T01:50:08;100766.25;;;23.53;55.41
46690;BME280;32423;45.398;10.874;2023-06-19T01:53:03;100762.69;;;23.56;55.64
46690;BME280;32423;45.398;10.874;2023-06-19T01:55:58;100756.38;;;23.41;56.39
46690;BME280;32423;45.398;10.874;2023-06-19T01:58:52;100764.31;;;23.46;55.52
46690;BME280;32423;45.398;10.874;2023-06-19T02:01:47;100761.84;;;23.62;55.28
46690;BME280;32423;45.398;10.874;2023-06-19T02:04:41;100761.09;;;23.55;55.21
46690;BME280;32423;45.398;10.874;2023-06-19T02:07:36;100771.38;;;23.68;54.75
46690;BME280;32423;45.398;10.874;2023-06-19T02:10:28;100789.69;;;23.27;56.42
46690;BME280;32423;45.398;10.874;2023-06-19T02:13:23;100775.44;;;23.21;56.54
46690;BME280;32423;45.398;10.874;2023-06-19T02:16:17;100784.56;;;23.11;57.29
46690;BME280;32423;45.398;10.874;2023-06-19T02:19:12;100781.44;;;23.06;57.70
46690;BME280;32423;45.398;10.874;2023-06-19T02:22:04;100779.44;;;22.99;57.44
46690;BME280;32423;45.398;10.874;2023-06-19T02:24:58;100772.31;;;22.98;57.31
46690;BME280;32423;45.398;10.874;2023-06-19T02:27:51;100780.63;;;23.05;56.96
46690;BME280;32423;45.398;10.874;2023-06-19T02:30:45;100786.94;;;23.30;56.54
46690;BME280;32423;45.398;10.874;2023-06-19T02:33:39;100786.09;;;23.37;56.43
46690;BME280;32423;45.398;10.874;2023-06-19T02:36:35;100782.19;;;23.20;56.48
46690;BME280;32423;45.398;10.874;2023-06-19T02:39:31;100776.63;;;23.17;56.15
46690;BME280;32423;45.398;10.874;2023-06-19T02:42:25;100777.47;;;22.99;57.21
46690;BME280;32423;45.398;10.874;2023-06-19T02:45:20;100781.00;;;23.07;57.42
46690;BME280;32423;45.398;10.874;2023-06-19T02:48:15;100778.63;;;23.02;57.73
46690;BME280;32423;45.398;10.874;2023-06-19T02:51:09;100779.84;;;22.97;57.88
46690;BME280;32423;45.398;10.874;2023-06-19T02:54:04;100777.03;;;23.19;57.32
46690;BME280;32423;45.398;10.874;2023-06-19T02:56:59;100771.47;;;23.22;56.92
46690;BME280;32423;45.398;10.874;2023-06-19T02:59:53;100789.34;;;23.14;56.65
46690;BME280;32423;45.398;10.874;2023-06-19T03:02:48;100782.19;;;23.13;56.40
46690;BME280;32423;45.398;10.874;2023-06-19T03:05:43;100789.34;;;23.11;56.74
46690;BME280;32423;45.398;10.874;2023-06-19T03:08:38;100785.78;;;23.03;56.19
46690;BME280;32423;45.398;10.874;2023-06-19T03:11:33;100785.00;;;22.85;57.92
46690;BME280;32423;45.398;10.874;2023-06-19T03:14:25;100781.44;;;22.84;57.80
46690;BME280;32423;45.398;10.874;2023-06-19T03:17:20;100788.97;;;22.73;57.44
46690;BME280;32423;45.398;10.874;2023-06-19T03:20:14;100792.53;;;22.74;57.79
46690;BME280;32423;45.398;10.874;2023-06-19T03:23:14;100799.25;;;22.76;57.91
46690;BME280;32423;45.398;10.874;2023-06-19T03:26:08;100796.47;;;22.76;57.37
46690;BME280;32423;45.398;10.874;2023-06-19T03:29:03;100786.97;;;22.59;58.04
46690;BME280;32423;45.398;10.874;2023-06-19T03:32:17;100790.50;;;22.56;58.03
46690;BME280;32423;45.398;10.874;2023-06-19T03:35:12;100800.03;;;22.59;58.00
46690;BME280;32423;45.398;10.874;2023-06-19T03:38:07;100801.59;;;22.64;57.78
46690;BME280;32423;45.398;10.874;2023-06-19T03:41:01;100794.50;;;22.70;58.06
46690;BME280;32423;45.398;10.874;2023-06-19T03:43:56;100802.44;;;22.75;57.59
46690;BME280;32423;45.398;10.874;2023-06-19T03:46:48;100808.75;;;22.72;57.97
46690;BME280;32423;45.398;10.874;2023-06-19T03:49:41;100804.38;;;22.60;58.94
46690;BME280;32423;45.398;10.874;2023-06-19T03:52:35;100800.41;;;22.61;58.58
46690;BME280;32423;45.398;10.874;2023-06-19T03:55:29;100798.81;;;22.53;59.45
46690;BME280;32423;45.398;10.874;2023-06-19T03:58:23;100812.66;;;22.46;59.12
46690;BME280;32423;45.398;10.874;2023-06-19T04:01:15;100811.06;;;22.38;59.65
46690;BME280;32423;45.398;10.874;2023-06-19T04:04:11;100805.13;;;22.32;60.67
46690;BME280;32423;45.398;10.874;2023-06-19T04:07:06;100806.31;;;22.38;60.62
46690;BME280;32423;45.398;10.874;2023-06-19T04:10:04;100808.72;;;22.54;59.40
46690;BME280;32423;45.398;10.874;2023-06-19T04:12:56;100813.09;;;22.62;59.34
46690;BME280;32423;45.398;10.874;2023-06-19T04:15:53;100807.53;;;22.62;59.13
46690;BME280;32423;45.398;10.874;2023-06-19T04:19:04;100799.97;;;22.38;60.67
46690;BME280;32423;45.398;10.874;2023-06-19T04:21:59;100791.25;;;22.32;60.98
46690;BME280;32423;45.398;10.874;2023-06-19T04:24:53;100788.88;;;22.31;61.24
46690;BME280;32423;45.398;10.874;2023-06-19T04:27:48;100799.97;;;22.41;61.10
46690;BME280;32423;45.398;10.874;2023-06-19T04:30:43;100798.03;;;22.52;61.12
46690;BME280;32423;45.398;10.874;2023-06-19T04:33:37;100797.63;;;22.57;60.84
46690;BME280;32423;45.398;10.874;2023-06-19T04:36:29;100801.22;;;22.72;60.62
46690;BME280;32423;45.398;10.874;2023-06-19T04:39:24;100801.63;;;22.78;60.49
46690;BME280;32423;45.398;10.874;2023-06-19T04:42:18;100802.03;;;22.73;60.66
46690;BME280;32423;45.398;10.874;2023-06-19T04:45:12;100803.63;;;22.77;60.44
46690;BME280;32423;45.398;10.874;2023-06-19T04:48:06;100803.22;;;22.82;60.32
46690;BME280;32423;45.398;10.874;2023-06-19T04:50:58;100804.00;;;22.86;60.57
46690;BME280;32423;45.398;10.874;2023-06-19T04:53:53;100804.00;;;22.86;60.97
46690;BME280;32423;45.398;10.874;2023-06-19T04:56:47;100807.19;;;22.99;60.37
46690;BME280;32423;45.398;10.874;2023-06-19T04:59:41;100804.78;;;23.12;60.20
46690;BME280;32423;45.398;10.874;2023-06-19T05:02:36;100807.97;;;23.07;60.27
46690;BME280;32423;45.398;10.874;2023-06-19T05:05:31;100800.84;;;23.09;60.26
46690;BME280;32423;45.398;10.874;2023-06-19T05:08:25;100802.38;;;23.28;60.21
46690;BME280;32423;45.398;10.874;2023-06-19T05:11:20;100803.56;;;23.27;59.65
46690;BME280;32423;45.398;10.874;2023-06-19T05:14:14;100803.19;;;23.28;59.98
46690;BME280;32423;45.398;10.874;2023-06-19T05:17:06;100803.94;;;23.43;59.77
46690;BME280;32423;45.398;10.874;2023-06-19T05:20:01;100807.13;;;23.49;59.48
46690;BME280;32423;45.398;10.874;2023-06-19T05:22:55;100809.50;;;23.50;59.22
46690;BME280;32423;45.398;10.874;2023-06-19T05:25:50;100817.44;;;23.55;58.90
46690;BME280;32423;45.398;10.874;2023-06-19T05:28:45;100809.06;;;23.62;58.85
46690;BME280;32423;45.398;10.874;2023-06-19T05:31:37;100815.00;;;23.68;58.50
46690;BME280;32423;45.398;10.874;2023-06-19T05:34:31;100810.25;;;23.72;58.45
46690;BME280;32423;45.398;10.874;2023-06-19T05:37:26;100806.28;;;23.69;57.92
46690;BME280;32423;45.398;10.874;2023-06-19T05:40:17;100807.81;;;23.77;58.13
46690;BME280;32423;45.398;10.874;2023-06-19T05:43:11;100809.81;;;23.80;57.59
46690;BME280;32423;45.398;10.874;2023-06-19T05:46:05;100807.03;;;23.80;57.39
46690;BME280;32423;45.398;10.874;2023-06-19T05:49:00;100812.16;;;23.85;57.29
46690;BME280;32423;45.398;10.874;2023-06-19T05:51:55;100816.09;;;23.95;56.48
46690;BME280;32423;45.398;10.874;2023-06-19T05:54:50;100814.13;;;23.96;56.35
46690;BME280;32423;45.398;10.874;2023-06-19T05:57:45;100810.16;;;23.97;55.96
46690;BME280;32423;45.398;10.874;2023-06-19T06:00:39;100805.34;;;24.01;56.18
46690;BME280;32423;45.398;10.874;2023-06-19T06:03:34;100808.16;;;23.97;55.75
46690;BME280;32423;45.398;10.874;2023-06-19T06:06:29;100810.16;;;23.97;55.73
46690;BME280;32423;45.398;10.874;2023-06-19T06:09:21;100808.50;;;24.03;55.55
46690;BME280;32423;45.398;10.874;2023-06-19T06:12:15;100812.09;;;24.07;55.51
46690;BME280;32423;45.398;10.874;2023-06-19T06:15:09;100819.19;;;24.08;55.64
46690;BME280;32423;45.398;10.874;2023-06-19T06:18:04;100816.41;;;24.11;55.11
46690;BME280;32423;45.398;10.874;2023-06-19T06:20:56;100812.03;;;24.14;55.01
46690;BME280;32423;45.398;10.874;2023-06-19T06:23:51;100810.78;;;24.29;55.24
46690;BME280;32423;45.398;10.874;2023-06-19T06:26:43;100812.34;;;24.37;54.39
46690;BME280;32423;45.398;10.874;2023-06-19T06:29:38;100805.19;;;24.36;54.54
46690;BME280;32423;45.398;10.874;2023-06-19T06:32:32;100806.75;;;24.41;54.83
46690;BME280;32423;45.398;10.874;2023-06-19T06:35:27;100806.31;;;24.46;54.36
46690;BME280;32423;45.398;10.874;2023-06-19T06:38:21;100803.94;;;24.48;54.16
46690;BME280;32423;45.398;10.874;2023-06-19T06:41:16;100797.06;;;24.59;54.35
46690;BME280;32423;45.398;10.874;2023-06-19T06:44:08;100787.94;;;24.59;53.62
46690;BME280;32423;45.398;10.874;2023-06-19T06:47:03;100791.47;;;24.66;53.91
46690;BME280;32423;45.398;10.874;2023-06-19T06:49:55;100794.66;;;24.68;54.21
46690;BME280;32423;45.398;10.874;2023-06-19T06:52:49;100796.91;;;24.81;53.79
46690;BME280;32423;45.398;10.874;2023-06-19T06:55:44;100782.22;;;24.80;53.62
46690;BME280;32423;45.398;10.874;2023-06-19T06:58:36;100794.19;;;24.74;53.37
46690;BME280;32423;45.398;10.874;2023-06-19T07:01:31;100800.09;;;24.83;53.60
46690;BME280;32423;45.398;10.874;2023-06-19T07:04:25;100794.91;;;24.81;53.25
46690;BME280;32423;45.398;10.874;2023-06-19T07:07:17;100790.53;;;24.84;53.38
46690;BME280;32423;45.398;10.874;2023-06-19T07:10:12;100785.75;;;24.84;53.59
46690;BME280;32423;45.398;10.874;2023-06-19T07:13:07;100792.50;;;24.87;53.24
46690;BME280;32423;45.398;10.874;2023-06-19T07:16:02;100790.44;;;24.94;53.37
46690;BME280;32423;45.398;10.874;2023-06-19T07:18:56;100787.63;;;25.01;53.28
46690;BME280;32423;45.398;10.874;2023-06-19T07:21:51;100783.22;;;25.04;53.34
46690;BME280;32423;45.398;10.874;2023-06-19T07:24:46;100784.75;;;25.12;52.69
46690;BME280;32423;45.398;10.874;2023-06-19T07:27:41;100792.25;;;25.15;53.03
46690;BME280;32423;45.398;10.874;2023-06-19T07:30:36;100787.06;;;25.17;52.65
46690;BME280;32423;45.398;10.874;2023-06-19T07:33:30;100784.69;;;25.19;52.37
46690;BME280;32423;45.398;10.874;2023-06-19T07:36:26;100781.44;;;25.24;52.07
46690;BME280;32423;45.398;10.874;2023-06-19T07:39:21;100788.50;;;25.32;51.35
46690;BME280;32423;45.398;10.874;2023-06-19T07:42:13;100804.31;;;25.42;51.69
46690;BME280;32423;45.398;10.874;2023-06-19T07:45:09;100796.38;;;25.41;51.56
46690;BME280;32423;45.398;10.874;2023-06-19T07:48:03;100807.84;;;25.46;51.96
46690;BME280;32423;45.398;10.874;2023-06-19T07:50:53;100802.19;;;25.53;51.81
46690;BME280;32423;45.398;10.874;2023-06-19T07:53:46;100795.03;;;25.56;52.10
46690;BME280;32423;45.398;10.874;2023-06-19T07:56:38;100796.22;;;25.59;51.99
46690;BME280;32423;45.398;10.874;2023-06-19T07:59:27;100802.91;;;25.65;51.53
46690;BME280;32423;45.398;10.874;2023-06-19T08:02:19;100807.03;;;25.46;52.24
46690;BME280;32423;45.398;10.874;2023-06-19T08:05:14;100809.81;;;25.49;53.03
46690;BME280;32423;45.398;10.874;2023-06-19T08:08:09;100813.78;;;25.48;53.59
46690;BME280;32423;45.398;10.874;2023-06-19T08:11:01;100812.22;;;25.47;53.45
46690;BME280;32423;45.398;10.874;2023-06-19T08:13:55;100823.66;;;25.57;53.13
46690;BME280;32423;45.398;10.874;2023-06-19T08:16:49;100822.44;;;25.61;52.91
46690;BME280;32423;45.398;10.874;2023-06-19T08:19:44;100829.41;;;25.76;52.41
46690;BME280;32423;45.398;10.874;2023-06-19T08:22:39;100829.06;;;25.71;52.87
46690;BME280;32423;45.398;10.874;2023-06-19T08:25:33;100827.09;;;25.71;53.39
46690;BME280;32423;45.398;10.874;2023-06-19T08:28:28;100829.63;;;25.59;52.98
46690;BME280;32423;45.398;10.874;2023-06-19T08:31:22;100837.53;;;25.64;53.37
46690;BME280;32423;45.398;10.874;2023-06-19T08:34:19;100829.00;;;25.78;53.29
46690;BME280;32423;45.398;10.874;2023-06-19T08:37:14;100841.28;;;25.84;52.98
46690;BME280;32423;45.398;10.874;2023-06-19T08:40:11;100838.84;;;25.86;52.20
46690;BME280;32423;45.398;10.874;2023-06-19T08:43:05;100831.25;;;25.90;52.46
46690;BME280;32423;45.398;10.874;2023-06-19T08:46:09;100831.66;;;25.88;52.52
46690;BME280;32423;45.398;10.874;2023-06-19T08:49:05;100840.53;;;25.80;52.79
46690;BME280;32423;45.398;10.874;2023-06-19T08:51:59;100843.69;;;25.82;52.88
46690;BME280;32423;45.398;10.874;2023-06-19T08:54:54;100838.81;;;25.89;52.67
46690;BME280;32423;45.398;10.874;2023-06-19T08:57:50;100836.44;;;25.88;52.72
46690;BME280;32423;45.398;10.874;2023-06-19T09:00:46;100838.84;;;25.86;52.71
46690;BME280;32423;45.398;10.874;2023-06-19T09:03:41;100825.31;;;25.88;52.66
46690;BME280;32423;45.398;10.874;2023-06-19T09:06:33;100837.19;;;25.92;52.30
46690;BME280;32423;45.398;10.874;2023-06-19T09:09:30;100827.69;;;25.89;52.32
46690;BME280;32423;45.398;10.874;2023-06-19T09:12:22;100825.22;;;25.95;52.28
46690;BME280;32423;45.398;10.874;2023-06-19T09:15:20;100822.00;;;25.96;52.29
46690;BME280;32423;45.398;10.874;2023-06-19T09:18:15;100816.81;;;25.98;52.22
46690;BME280;32423;45.398;10.874;2023-06-19T09:21:14;100819.53;;;26.02;52.02
46690;BME280;32423;45.398;10.874;2023-06-19T09:24:09;100829.16;;;25.97;52.66
46690;BME280;32423;45.398;10.874;2023-06-19T09:27:31;100826.69;;;26.03;52.43
46690;BME280;32423;45.398;10.874;2023-06-19T09:30:20;100825.13;;;26.02;52.09
46690;BME280;32423;45.398;10.874;2023-06-19T09:33:10;100826.44;;;25.94;52.54
46690;BME280;32423;45.398;10.874;2023-06-19T09:36:06;100816.53;;;25.89;52.58
46690;BME280;32423;45.398;10.874;2023-06-19T09:38:56;100820.06;;;25.93;52.56
46690;BME280;32423;45.398;10.874;2023-06-19T09:41:52;100814.41;;;26.01;52.27
46690;BME280;32423;45.398;10.874;2023-06-19T09:44:42;100814.81;;;25.99;51.99
46690;BME280;32423;45.398;10.874;2023-06-19T09:47:40;100817.59;;;25.99;52.16
46690;BME280;32423;45.398;10.874;2023-06-19T09:50:38;100811.28;;;25.95;52.24
46690;BME280;32423;45.398;10.874;2023-06-19T09:53:34;100817.22;;;25.97;52.13
46690;BME280;32423;45.398;10.874;2023-06-19T09:56:27;100813.56;;;26.04;51.50
46690;BME280;32423;45.398;10.874;2023-06-19T09:59:20;100820.28;;;26.06;51.51
46690;BME280;32423;45.398;10.874;2023-06-19T10:02:32;100829.09;;;26.01;51.58
46690;BME280;32423;45.398;10.874;2023-06-19T10:05:32;100831.59;;;25.95;51.50
46690;BME280;32423;45.398;10.874;2023-06-19T10:08:28;100822.78;;;25.97;51.57
46690;BME280;32423;45.398;10.874;2023-06-19T10:11:23;100829.16;;;25.97;51.00
46690;BME280;32423;45.398;10.874;2023-06-19T10:14:15;100823.53;;;26.01;51.26
46690;BME280;32423;45.398;10.874;2023-06-19T10:17:13;100821.66;;;25.94;51.11
46690;BME280;32423;45.398;10.874;2023-06-19T10:20:17;100825.16;;;25.98;51.17
46690;BME280;32423;45.398;10.874;2023-06-19T10:23:17;100818.34;;;26.03;50.56
46690;BME280;32423;45.398;10.874;2023-06-19T10:26:18;100815.03;;;26.12;50.44
46690;BME280;32423;45.398;10.874;2023-06-19T10:29:19;100818.66;;;26.09;50.67
46690;BME280;32423;45.398;10.874;2023-06-19T10:32:14;100820.28;;;26.06;50.53
46690;BME280;32423;45.398;10.874;2023-06-19T10:35:12;100819.88;;;26.08;49.21
46690;BME280;32423;45.398;10.874;2023-06-19T10:38:07;100817.00;;;26.15;49.52
46690;BME280;32423;45.398;10.874;2023-06-19T10:41:02;100810.97;;;26.20;48.70
46690;BME280;32423;45.398;10.874;2023-06-19T10:44:07;100809.72;;;26.24;49.12
46690;BME280;32423;45.398;10.874;2023-06-19T10:47:04;100803.75;;;26.22;49.19
46690;BME280;32423;45.398;10.874;2023-06-19T10:49:57;100811.31;;;26.25;48.27
46690;BME280;32423;45.398;10.874;2023-06-19T10:52:52;100813.63;;;26.30;48.37
46690;BME280;32423;45.398;10.874;2023-06-19T10:55:47;100809.72;;;26.24;48.29
46690;BME280;32423;45.398;10.874;2023-06-19T10:58:41;100808.88;;;26.27;48.22
46690;BME280;32423;45.398;10.874;2023-06-19T11:01:41;100806.78;;;26.35;47.78
46690;BME280;32423;45.398;10.874;2023-06-19T11:04:39;100805.13;;;26.37;47.76
46690;BME280;32423;45.398;10.874;2023-06-19T11:07:33;100798.44;;;26.31;48.13
46690;BME280;32423;45.398;10.874;2023-06-19T11:10:29;100804.94;;;26.25;48.27
46690;BME280;32423;45.398;10.874;2023-06-19T11:13:24;100800.50;;;26.27;47.91
46690;BME280;32423;45.398;10.874;2023-06-19T11:16:39;100786.34;;;26.42;46.89
46690;BME280;32423;45.398;10.874;2023-06-19T11:19:35;100799.81;;;26.47;47.22
46690;BME280;32423;45.398;10.874;2023-06-19T11:22:39;100790.38;;;26.41;47.47
46690;BME280;32423;45.398;10.874;2023-06-19T11:25:43;100789.25;;;26.34;47.52
46690;BME280;32423;45.398;10.874;2023-06-19T11:28:40;100782.50;;;26.32;47.25
46690;BME280;32423;45.398;10.874;2023-06-19T11:31:32;100787.69;;;26.33;47.78
46690;BME280;32423;45.398;10.874;2023-06-19T11:34:33;100787.53;;;26.44;47.21
46690;BME280;32423;45.398;10.874;2023-06-19T11:37:32;100788.25;;;26.48;47.33
46690;BME280;32423;45.398;10.874;2023-06-19T11:40:27;100781.53;;;26.46;47.09
46690;BME280;32423;45.398;10.874;2023-06-19T11:43:26;100778.34;;;26.44;47.29
46690;BME280;32423;45.398;10.874;2023-06-19T11:46:18;100777.50;;;26.47;46.43
46690;BME280;32423;45.398;10.874;2023-06-19T11:49:16;100769.44;;;26.52;46.21
46690;BME280;32423;45.398;10.874;2023-06-19T11:52:08;100769.41;;;26.56;46.60
46690;BME280;32423;45.398;10.874;2023-06-19T11:55:03;100773.03;;;26.53;46.30
46690;BME280;32423;45.398;10.874;2023-06-19T11:57:53;100765.75;;;26.59;46.50
46690;BME280;32423;45.398;10.874;2023-06-19T12:00:45;100758.84;;;26.67;45.67
46690;BME280;32423;45.398;10.874;2023-06-19T12:03:37;100757.28;;;26.66;46.26
46690;BME280;32423;45.398;10.874;2023-06-19T12:06:32;100754.19;;;26.60;46.41
46690;BME280;32423;45.398;10.874;2023-06-19T12:09:24;100751.81;;;26.59;46.32
46690;BME280;32423;45.398;10.874;2023-06-19T12:12:20;100743.88;;;26.57;46.13
46690;BME280;32423;45.398;10.874;2023-06-19T12:15:14;100746.25;;;26.59;46.09
46690;BME280;32423;45.398;10.874;2023-06-19T12:18:08;100740.66;;;26.59;46.07
46690;BME280;32423;45.398;10.874;2023-06-19T12:21:02;100736.53;;;26.67;45.33
46690;BME280;32423;45.398;10.874;2023-06-19T12:23:57;100728.41;;;26.76;45.25
46690;BME280;32423;45.398;10.874;2023-06-19T12:26:49;100733.19;;;26.99;44.44
46690;BME280;32423;45.398;10.874;2023-06-19T12:29:44;100726.13;;;26.94;44.78
46690;BME280;32423;45.398;10.874;2023-06-19T12:32:36;100731.81;;;26.87;45.40
46690;BME280;32423;45.398;10.874;2023-06-19T12:35:31;100725.13;;;26.81;45.59
46690;BME280;32423;45.398;10.874;2023-06-19T12:38:23;100721.81;;;26.90;45.15
46690;BME280;32423;45.398;10.874;2023-06-19T12:41:18;100728.28;;;26.83;45.46
46690;BME280;32423;45.398;10.874;2023-06-19T12:44:10;100723.44;;;26.87;45.70
46690;BME280;32423;45.398;10.874;2023-06-19T12:47:22;100723.31;;;26.94;45.26
46690;BME280;32423;45.398;10.874;2023-06-19T12:50:19;100711.44;;;26.90;45.67
46690;BME280;32423;45.398;10.874;2023-06-19T12:53:13;100716.66;;;26.88;45.49
46690;BME280;32423;45.398;10.874;2023-06-19T12:56:07;100713.84;;;26.88;44.98
46690;BME280;32423;45.398;10.874;2023-06-19T12:58:59;100720.94;;;26.93;45.22
46690;BME280;32423;45.398;10.874;2023-06-19T13:01:54;100721.69;;;26.97;45.21
46690;BME280;32423;45.398;10.874;2023-06-19T13:04:45;100702.66;;;26.92;45.53
46690;BME280;32423;45.398;10.874;2023-06-19T13:07:40;100713.06;;;26.88;45.59
46690;BME280;32423;45.398;10.874;2023-06-19T13:10:32;100710.56;;;26.93;45.17
46690;BME280;32423;45.398;10.874;2023-06-19T13:13:27;100706.56;;;26.94;45.28
46690;BME280;32423;45.398;10.874;2023-06-19T13:16:22;100709.75;;;26.96;45.47
46690;BME280;32423;45.398;10.874;2023-06-19T13:19:17;100705.97;;;27.06;45.14
46690;BME280;32423;45.398;10.874;2023-06-19T13:22:09;100715.16;;;27.03;45.60
46690;BME280;32423;45.398;10.874;2023-06-19T13:25:01;100708.75;;;27.06;45.49
46690;BME280;32423;45.398;10.874;2023-06-19T13:27:55;100703.88;;;27.10;45.56
46690;BME280;32423;45.398;10.874;2023-06-19T13:30:47;100711.03;;;27.11;45.54
46690;BME280;32423;45.398;10.874;2023-06-19T13:33:42;100706.03;;;27.22;44.29
46690;BME280;32423;45.398;10.874;2023-06-19T13:36:38;100709.81;;;27.12;45.24
46690;BME280;32423;45.398;10.874;2023-06-19T13:39:30;100705.59;;;27.04;45.78
46690;BME280;32423;45.398;10.874;2023-06-19T13:42:22;100702.00;;;27.04;45.31
46690;BME280;32423;45.398;10.874;2023-06-19T13:45:17;100704.72;;;27.07;45.59
46690;BME280;32423;45.398;10.874;2023-06-19T13:48:11;100699.63;;;27.02;45.89
46690;BME280;32423;45.398;10.874;2023-06-19T13:51:09;100690.75;;;27.07;45.38
46690;BME280;32423;45.398;10.874;2023-06-19T13:54:01;100694.28;;;27.11;46.11
46690;BME280;32423;45.398;10.874;2023-06-19T13:56:55;100678.88;;;27.23;45.00
46690;BME280;32423;45.398;10.874;2023-06-19T13:59:50;100681.31;;;27.41;43.85
46690;BME280;32423;45.398;10.874;2023-06-19T14:02:42;100682.34;;;27.50;44.49
46690;BME280;32423;45.398;10.874;2023-06-19T14:05:35;100685.53;;;27.49;44.21
46690;BME280;32423;45.398;10.874;2023-06-19T14:08:30;100678.38;;;27.48;44.91
46690;BME280;32423;45.398;10.874;2023-06-19T14:11:26;100687.97;;;27.47;44.89
46690;BME280;32423;45.398;10.874;2023-06-19T14:14:18;100683.47;;;27.33;45.19
46690;BME280;32423;45.398;10.874;2023-06-19T14:17:10;100681.16;;;27.28;45.35
46690;BME280;32423;45.398;10.874;2023-06-19T14:20:03;100683.97;;;27.28;45.50
46690;BME280;32423;45.398;10.874;2023-06-19T14:22:57;100683.13;;;27.31;45.32
46690;BME280;32423;45.398;10.874;2023-06-19T14:25:51;100677.81;;;27.37;45.57
46690;BME280;32423;45.398;10.874;2023-06-19T14:28:46;100677.75;;;27.40;44.81
46690;BME280;32423;45.398;10.874;2023-06-19T14:31:38;100668.94;;;27.42;44.63
46690;BME280;32423;45.398;10.874;2023-06-19T14:34:30;100674.03;;;27.27;45.45
46690;BME280;32423;45.398;10.874;2023-06-19T14:37:25;100679.75;;;27.20;45.50
46690;BME280;32423;45.398;10.874;2023-06-19T14:40:17;100679.75;;;27.20;45.70
46690;BME280;32423;45.398;10.874;2023-06-19T14:43:07;100677.84;;;27.17;45.65
46690;BME280;32423;45.398;10.874;2023-06-19T14:46:01;100672.16;;;27.20;46.06
46690;BME280;32423;45.398;10.874;2023-06-19T14:48:55;100670.22;;;27.17;46.21
46690;BME280;32423;45.398;10.874;2023-06-19T14:51:47;100674.09;;;27.23;46.05
46690;BME280;32423;45.398;10.874;2023-06-19T14:54:42;100662.34;;;27.12;46.17
46690;BME280;32423;45.398;10.874;2023-06-19T14:57:36;100670.78;;;27.09;46.06
46690;BME280;32423;45.398;10.874;2023-06-19T15:00:28;100666.91;;;27.03;46.45
46690;BME280;32423;45.398;10.874;2023-06-19T15:03:23;100673.88;;;27.14;46.52
46690;BME280;32423;45.398;10.874;2023-06-19T15:06:13;100666.22;;;27.18;46.50